Time;durP1;ratioP1;P1;durP2;ratioP2;P2;SDS_P1;SDS_P2;PMS_P1;PMS_P2;Temp;Humidity;BMP_temperature;BMP_pressure;BME280_temperature;BME280_humidity;BME280_pressure;Samples;Min_cycle;Max_cycle;Signal;HPM_P1;HPM_P2
2022/01/02 00:01:30;;;;;;;17.03;11.63;;;;;;;5.07;100.00;98822.72;5100322;28;20216;-69
2022/01/02 00:04:01;;;;;;;16.90;12.60;;;;;;;5.01;100.00;98822.09;5100314;28;20583;-68
2022/01/02 00:06:32;;;;;;;17.83;12.43;;;;;;;5.05;100.00;98827.16;5099070;28;20214;-68
2022/01/02 00:09:03;;;;;;;20.97;13.33;;;;;;;5.03;100.00;98831.63;5108076;28;20705;-68
2022/01/02 00:11:30;;;;;;;20.00;13.43;;;;;;;4.99;100.00;98835.25;5098994;28;20222;-68
2022/01/02 00:14:08;;;;;;;18.10;12.10;;;;;;;5.02;100.00;98832.50;5098804;28;20223;-68
2022/01/02 00:16:36;;;;;;;18.70;12.60;;;;;;;5.00;100.00;98823.84;5098856;28;20220;-68
2022/01/02 00:19:18;;;;;;;16.53;12.67;;;;;;;5.01;100.00;98822.94;5098551;28;20286;-68
2022/01/02 00:21:47;;;;;;;16.77;12.07;;;;;;;5.03;100.00;98821.13;5098360;28;20216;-68
2022/01/02 00:24:18;;;;;;;17.03;11.63;;;;;;;5.04;100.00;98814.97;5097536;28;20217;-68
2022/01/02 00:26:48;;;;;;;16.77;11.70;;;;;;;5.05;100.00;98808.81;5099860;28;20216;-68
2022/01/02 00:29:16;;;;;;;17.23;11.73;;;;;;;5.07;100.00;98814.84;5098050;28;20675;-68
2022/01/02 00:31:43;;;;;;;18.00;11.57;;;;;;;5.12;100.00;98819.94;5098148;28;20215;-68
2022/01/02 00:34:10;;;;;;;17.13;12.23;;;;;;;5.14;100.00;98818.13;5099254;28;20247;-68
2022/01/02 00:36:37;;;;;;;17.83;12.50;;;;;;;5.17;100.00;98817.97;5099319;28;20219;-68
2022/01/02 00:39:06;;;;;;;17.00;12.10;;;;;;;5.19;100.00;98814.41;5098336;28;20642;-68
2022/01/02 00:41:36;;;;;;;18.50;12.27;;;;;;;5.18;100.00;98823.19;5096124;28;20372;-68
2022/01/02 00:44:09;;;;;;;17.07;12.70;;;;;;;5.19;100.00;98816.19;5099406;28;20220;-69
2022/01/02 00:46:47;;;;;;;16.63;12.27;;;;;;;5.16;100.00;98809.28;5098210;28;20208;-68
2022/01/02 00:49:24;;;;;;;16.30;12.13;;;;;;;5.13;100.00;98804.16;5097879;28;20222;-69
2022/01/02 00:51:56;;;;;;;16.10;11.30;;;;;;;5.11;100.00;98800.72;5098666;28;20217;-68
2022/01/02 00:54:27;;;;;;;15.90;11.37;;;;;;;5.05;100.00;98792.22;5098686;28;20219;-68
2022/01/02 00:57:03;;;;;;;18.83;11.77;;;;;;;5.04;100.00;98799.25;5097801;28;20272;-68
2022/01/02 00:59:35;;;;;;;16.30;11.53;;;;;;;5.03;100.00;98799.31;5097717;28;20220;-68
2022/01/02 01:02:05;;;;;;;15.70;10.93;;;;;;;4.97;100.00;98789.06;5105686;28;20212;-69
2022/01/02 01:04:33;;;;;;;15.60;10.90;;;;;;;4.90;100.00;98787.56;5108165;28;20708;-69
2022/01/02 01:07:04;;;;;;;15.47;11.90;;;;;;;4.89;100.00;98789.31;5107609;28;20222;-68
2022/01/02 01:09:31;;;;;;;15.40;11.83;;;;;;;4.83;100.00;98791.31;5096363;28;20206;-68
2022/01/02 01:11:59;;;;;;;15.33;11.37;;;;;;;4.75;100.00;98786.34;5099523;28;20218;-68
2022/01/02 01:14:26;;;;;;;15.90;10.93;;;;;;;4.68;100.00;98787.50;5101087;28;20213;-69
2022/01/02 01:16:53;;;;;;;15.63;10.60;;;;;;;4.64;100.00;98785.88;5099648;28;20250;-68
2022/01/02 01:19:22;;;;;;;16.57;11.03;;;;;;;4.66;100.00;98776.22;5101928;28;20208;-68
2022/01/02 01:21:49;;;;;;;15.90;11.00;;;;;;;4.65;100.00;98777.09;5098601;28;20222;-68
2022/01/02 01:24:15;;;;;;;17.27;11.50;;;;;;;4.63;100.00;98767.59;5098844;28;20222;-69
2022/01/02 01:26:43;;;;;;;16.60;11.53;;;;;;;4.61;100.00;98770.28;5099277;28;20227;-68
2022/01/02 01:29:09;;;;;;;16.07;11.37;;;;;;;4.62;100.00;98772.00;5101362;28;20216;-69
2022/01/02 01:31:36;;;;;;;17.63;12.10;;;;;;;4.57;100.00;98768.69;5098289;28;20238;-68
2022/01/02 01:34:02;;;;;;;17.30;11.60;;;;;;;4.53;100.00;98761.84;5096625;28;20585;-68
2022/01/02 01:36:30;;;;;;;17.43;12.73;;;;;;;4.41;100.00;98762.25;5098748;28;20209;-68
2022/01/02 01:38:57;;;;;;;17.47;12.90;;;;;;;4.33;100.00;98766.91;5101588;28;20676;-68
2022/01/02 01:41:29;;;;;;;18.53;12.53;;;;;;;4.29;100.00;98767.91;5098530;28;20676;-68
2022/01/02 01:44:08;;;;;;;18.77;12.30;;;;;;;4.12;100.00;98765.03;5098824;28;20315;-68
2022/01/02 01:46:36;;;;;;;17.13;12.70;;;;;;;4.04;100.00;98761.81;5100557;28;20237;-68
2022/01/02 01:49:13;;;;;;;18.50;12.83;;;;;;;3.96;100.00;98752.50;5099679;28;20210;-68
2022/01/02 01:51:41;;;;;;;17.33;12.57;;;;;;;3.96;100.00;98747.28;5098035;28;20242;-68
2022/01/02 01:54:07;;;;;;;18.43;13.20;;;;;;;3.99;100.00;98748.06;5098150;28;20211;-68
2022/01/02 01:56:34;;;;;;;14.97;11.50;;;;;;;4.02;100.00;98749.69;5096515;28;20227;-68
2022/01/02 01:59:00;;;;;;;18.40;12.27;;;;;;;3.99;100.00;98758.50;5099018;28;20225;-68
2022/01/02 02:01:27;;;;;;;20.53;12.90;;;;;;;4.01;100.00;98755.81;5095414;28;20211;-68
2022/01/02 02:03:54;;;;;;;15.33;11.23;;;;;;;4.00;100.00;98749.75;5096346;28;20219;-68
2022/01/02 02:06:20;;;;;;;16.30;11.37;;;;;;;4.01;100.00;98746.22;5096319;28;20222;-68
2022/01/02 02:08:51;;;;;;;18.97;12.10;;;;;;;4.01;100.00;98740.13;5099433;28;20685;-68
2022/01/02 02:11:18;;;;;;;16.57;11.63;;;;;;;4.00;100.00;98744.53;5097919;28;20239;-68
2022/01/02 02:13:45;;;;;;;18.03;11.90;;;;;;;3.97;100.00;98741.16;5097667;28;20223;-68
2022/01/02 02:16:12;;;;;;;19.10;12.57;;;;;;;3.96;100.00;98732.44;5101415;28;20217;-68
2022/01/02 02:18:39;;;;;;;17.50;12.60;;;;;;;3.91;100.00;98734.34;5098221;28;20217;-68
2022/01/02 02:21:07;;;;;;;16.87;12.13;;;;;;;3.93;100.00;98731.69;5097795;28;20211;-68
2022/01/02 02:23:33;;;;;;;15.83;11.70;;;;;;;3.93;100.00;98723.84;5097672;28;20231;-68
2022/01/02 02:26:00;;;;;;;16.83;12.07;;;;;;;3.92;100.00;98709.06;5099173;28;20214;-68
2022/01/02 02:28:27;;;;;;;17.53;12.07;;;;;;;3.94;100.00;98715.09;5101166;28;20233;-68
2022/01/02 02:30:55;;;;;;;16.23;11.93;;;;;;;3.94;100.00;98708.13;5096313;28;20309;-68
2022/01/02 02:33:23;;;;;;;14.70;11.27;;;;;;;3.96;100.00;98711.53;5096207;28;20225;-69
2022/01/02 02:35:50;;;;;;;14.50;11.37;;;;;;;3.96;100.00;98701.06;5096282;28;20219;-68
2022/01/02 02:38:20;;;;;;;17.57;11.77;;;;;;;4.04;100.00;98698.19;5099134;28;20210;-68
2022/01/02 02:40:47;;;;;;;13.13;10.60;;;;;;;3.91;100.00;98697.75;5096092;28;20242;-68
2022/01/02 02:43:26;;;;;;;15.80;11.07;;;;;;;3.84;100.00;98696.25;5095647;28;20219;-68
2022/01/02 02:51:28;;;;;;;17.60;12.07;;;;;;;3.85;100.00;98687.50;5096774;28;20237;-68
2022/01/02 02:53:56;;;;;;;18.90;11.63;;;;;;;3.85;100.00;98682.28;5099099;28;20221;-68
2022/01/02 02:56:25;;;;;;;15.40;10.87;;;;;;;3.91;100.00;98681.22;5097376;28;20219;-68
2022/01/02 02:58:56;;;;;;;15.43;11.47;;;;;;;3.93;100.00;98669.81;5097029;28;20221;-68
2022/01/02 03:01:24;;;;;;;15.77;10.93;;;;;;;3.89;100.00;98664.72;5100394;28;20252;-68
2022/01/02 03:03:51;;;;;;;16.97;11.57;;;;;;;3.94;100.00;98661.06;5098084;28;20218;-68
2022/01/02 03:06:18;;;;;;;14.10;10.57;;;;;;;3.88;100.00;98650.81;5097250;28;20212;-68
2022/01/02 03:08:47;;;;;;;14.77;11.13;;;;;;;3.78;100.00;98638.94;5102913;28;20210;-68
2022/01/02 03:11:19;;;;;;;15.37;10.90;;;;;;;3.72;100.00;98644.38;5103070;28;20230;-68
2022/01/02 03:13:46;;;;;;;14.37;9.77;;;;;;;3.72;100.00;98640.94;5103004;28;20508;-69
2022/01/02 03:16:13;;;;;;;15.37;11.10;;;;;;;3.73;100.00;98645.25;5106349;28;20218;-69
2022/01/02 03:18:40;;;;;;;15.07;10.83;;;;;;;3.71;100.00;98642.69;5104548;28;20214;-68
2022/01/02 03:21:08;;;;;;;14.30;11.03;;;;;;;3.81;100.00;98638.84;5102314;28;20222;-68
2022/01/02 03:23:34;;;;;;;14.07;10.20;;;;;;;3.85;100.00;98642.22;5102971;28;20210;-68
2022/01/02 03:26:01;;;;;;;15.80;10.87;;;;;;;3.97;100.00;98637.41;5106200;28;20222;-68
2022/01/02 03:28:29;;;;;;;15.80;11.27;;;;;;;4.01;100.00;98645.97;5105865;28;20680;-68
2022/01/02 03:30:55;;;;;;;14.70;10.23;;;;;;;4.09;100.00;98638.75;5102787;28;20243;-68
2022/01/02 03:33:22;;;;;;;14.13;9.77;;;;;;;4.15;100.00;98641.97;5102518;28;20218;-68
2022/01/02 03:35:48;;;;;;;14.70;10.30;;;;;;;4.23;100.00;98636.47;5106002;28;20233;-68
2022/01/02 03:38:15;;;;;;;14.67;10.77;;;;;;;4.29;100.00;98636.25;5105935;28;20221;-68
2022/01/02 03:40:42;;;;;;;15.10;10.80;;;;;;;4.24;100.00;98644.28;5102867;28;20223;-68
2022/01/02 03:43:09;;;;;;;12.83;9.70;;;;;;;4.19;100.00;98630.50;5106262;28;20210;-68
2022/01/02 03:45:36;;;;;;;13.00;9.50;;;;;;;4.13;100.00;98628.09;5104395;28;20215;-68
2022/01/02 03:48:03;;;;;;;13.53;10.17;;;;;;;4.09;100.00;98634.34;5095504;28;20222;-68
2022/01/02 03:50:30;;;;;;;14.00;10.17;;;;;;;4.10;100.00;98629.97;5095050;28;20788;-68
2022/01/02 03:52:56;;;;;;;13.40;9.50;;;;;;;4.03;100.00;98631.94;5097678;28;20207;-68
2022/01/02 03:55:23;;;;;;;14.57;10.37;;;;;;;4.01;100.00;98618.09;5095369;28;20703;-68
2022/01/02 03:57:50;;;;;;;14.50;9.67;;;;;;;4.03;100.00;98620.66;5097120;28;20213;-68
2022/01/02 04:00:18;;;;;;;12.87;9.87;;;;;;;3.98;100.00;98618.19;5098914;28;20215;-68
2022/01/02 04:02:47;;;;;;;13.97;9.70;;;;;;;3.86;100.00;98616.00;5100856;28;20214;-68
2022/01/02 04:05:15;;;;;;;12.47;9.00;;;;;;;3.82;100.00;98609.19;5098611;28;20211;-68
2022/01/02 04:07:42;;;;;;;13.13;9.60;;;;;;;3.69;100.00;98613.13;5098555;28;20211;-68
2022/01/02 04:10:12;;;;;;;11.93;9.63;;;;;;;3.60;100.00;98617.81;5099688;28;20214;-68
2022/01/02 04:12:40;;;;;;;11.13;8.90;;;;;;;3.57;100.00;98610.06;5101125;28;20607;-68
2022/01/02 04:15:08;;;;;;;13.07;9.40;;;;;;;3.50;100.00;98612.06;5100200;28;20210;-68
2022/01/02 04:17:35;;;;;;;11.20;9.20;;;;;;;3.40;100.00;98599.31;5099845;28;20673;-68
2022/01/02 04:20:05;;;;;;;9.47;8.47;;;;;;;3.27;100.00;98604.13;5103033;28;20210;-68
2022/01/02 04:22:31;;;;;;;12.07;8.60;;;;;;;3.28;100.00;98611.03;5100141;28;20203;-68
2022/01/02 04:24:58;;;;;;;13.50;9.17;;;;;;;3.26;100.00;98607.63;5099708;28;20210;-68
2022/01/02 04:27:25;;;;;;;15.27;9.80;;;;;;;3.22;100.00;98599.94;5099939;28;20211;-68
2022/01/02 04:29:52;;;;;;;12.30;9.50;;;;;;;3.19;100.00;98608.72;5102481;28;20250;-68
2022/01/02 04:32:19;;;;;;;13.93;10.50;;;;;;;3.18;100.00;98601.78;5100519;28;20238;-68
2022/01/02 04:34:46;;;;;;;10.80;9.37;;;;;;;3.21;100.00;98593.88;5099880;28;20210;-68
2022/01/02 04:37:14;;;;;;;12.27;9.07;;;;;;;3.26;100.00;98597.19;5098011;28;20222;-68
2022/01/02 04:39:41;;;;;;;11.13;8.93;;;;;;;3.30;100.00;98595.34;5102012;28;20214;-68
2022/01/02 04:42:08;;;;;;;11.87;8.80;;;;;;;3.36;100.00;98577.69;5100555;28;20263;-68
2022/01/02 04:44:35;;;;;;;11.70;9.07;;;;;;;3.46;100.00;98581.69;5099522;28;20207;-68
2022/01/02 04:47:01;;;;;;;12.03;9.63;;;;;;;3.60;100.00;98582.06;5099480;28;20219;-68
2022/01/02 04:49:28;;;;;;;14.07;10.07;;;;;;;3.67;100.00;98578.34;5101703;28;20218;-68
2022/01/02 04:51:55;;;;;;;13.97;9.83;;;;;;;3.73;100.00;98561.59;5100980;28;20245;-68
2022/01/02 04:54:23;;;;;;;15.20;9.97;;;;;;;3.84;100.00;98557.69;5099130;28;20221;-68
2022/01/02 04:56:50;;;;;;;15.00;10.37;;;;;;;3.93;100.00;98554.75;5099052;28;20220;-68
2022/01/02 04:59:16;;;;;;;13.50;9.93;;;;;;;3.99;100.00;98553.66;5101716;28;20691;-68
2022/01/02 05:01:43;;;;;;;13.67;10.13;;;;;;;4.10;100.00;98557.59;5098020;28;20229;-68
2022/01/02 05:04:09;;;;;;;13.70;9.00;;;;;;;4.17;100.00;98553.00;5098460;28;20222;-68
2022/01/02 05:06:36;;;;;;;14.70;11.07;;;;;;;4.24;100.00;98550.09;5097763;28;20217;-68
2022/01/02 05:09:03;;;;;;;13.77;9.73;;;;;;;4.30;100.00;98549.88;5104064;28;20228;-68
2022/01/02 05:11:31;;;;;;;13.37;9.90;;;;;;;4.37;100.00;98547.84;5104498;28;20252;-68
2022/01/02 05:13:58;;;;;;;13.33;9.33;;;;;;;4.40;100.00;98553.81;5107002;28;20214;-68
2022/01/02 05:16:24;;;;;;;13.67;9.67;;;;;;;4.40;100.00;98550.38;5107803;28;20206;-68
2022/01/02 05:18:51;;;;;;;12.20;9.20;;;;;;;4.35;100.00;98541.84;5106592;28;20230;-68
2022/01/02 05:21:17;;;;;;;14.33;9.53;;;;;;;4.32;100.00;98545.41;5104175;28;20222;-68
2022/01/02 05:23:44;;;;;;;11.00;8.57;;;;;;;4.30;100.00;98547.25;5106404;28;20207;-68
2022/01/02 05:26:10;;;;;;;11.90;9.10;;;;;;;4.28;100.00;98535.97;5107740;28;20226;-68
2022/01/02 05:28:38;;;;;;;12.93;8.83;;;;;;;4.29;100.00;98542.91;5105136;28;20215;-68
2022/01/02 05:31:04;;;;;;;14.33;10.03;;;;;;;4.29;100.00;98542.91;5103991;28;20244;-68
2022/01/02 05:33:31;;;;;;;12.13;9.30;;;;;;;4.30;100.00;98544.63;5105864;28;20218;-68
2022/01/02 05:35:57;;;;;;;12.70;9.33;;;;;;;4.32;100.00;98537.56;5107516;28;20217;-68
2022/01/02 05:38:24;;;;;;;13.23;9.57;;;;;;;4.35;100.00;98532.19;5106959;28;20686;-68
2022/01/02 05:40:52;;;;;;;13.23;9.73;;;;;;;4.38;100.00;98524.25;5103486;28;20214;-70
2022/01/02 05:43:18;;;;;;;12.93;10.00;;;;;;;4.41;100.00;98531.97;5105002;28;20216;-68
2022/01/02 05:45:46;;;;;;;12.70;9.70;;;;;;;4.43;100.00;98530.16;5107518;28;20206;-68
2022/01/02 05:48:12;;;;;;;13.30;9.37;;;;;;;4.46;100.00;98524.81;5107367;28;20221;-68
2022/01/02 05:50:39;;;;;;;12.87;9.03;;;;;;;4.49;100.00;98523.84;5103861;28;20220;-68
2022/01/02 05:53:05;;;;;;;12.50;9.27;;;;;;;4.49;100.00;98518.59;5104378;28;20241;-68
2022/01/02 05:55:32;;;;;;;15.07;9.73;;;;;;;4.52;100.00;98515.88;5106178;28;20227;-68
2022/01/02 05:57:58;;;;;;;12.07;9.40;;;;;;;4.49;100.00;98519.47;5106976;28;20211;-68
2022/01/02 06:00:25;;;;;;;13.33;9.10;;;;;;;4.45;100.00;98511.81;5103580;28;20219;-68
2022/01/02 06:02:53;;;;;;;12.63;9.03;;;;;;;4.47;100.00;98500.34;5103728;28;20211;-68
2022/01/02 06:05:19;;;;;;;12.80;8.93;;;;;;;4.48;100.00;98507.28;5107169;28;20207;-68
2022/01/02 06:07:46;;;;;;;11.13;8.30;;;;;;;4.45;100.00;98502.16;5107383;28;20211;-68
2022/01/02 06:10:12;;;;;;;13.47;8.77;;;;;;;4.46;100.00;98498.63;5096879;28;20210;-68
2022/01/02 06:12:39;;;;;;;9.93;8.00;;;;;;;4.50;100.00;98496.75;5099583;28;20592;-68
2022/01/02 06:15:06;;;;;;;10.53;8.43;;;;;;;4.53;100.00;98489.63;5106712;28;20242;-68
2022/01/02 06:17:33;;;;;;;10.83;8.33;;;;;;;4.50;100.00;98495.00;5106892;28;20260;-68
2022/01/02 06:20:01;;;;;;;10.93;7.90;;;;;;;4.49;100.00;98493.28;5102092;28;20231;-68
2022/01/02 06:22:27;;;;;;;11.10;8.23;;;;;;;4.54;100.00;98496.59;5102254;28;20230;-67
2022/01/02 06:24:54;;;;;;;9.90;7.63;;;;;;;4.53;100.00;98494.03;5106779;28;20578;-68
2022/01/02 06:27:20;;;;;;;10.90;8.43;;;;;;;4.51;100.00;98496.69;5106815;28;20210;-68
2022/01/02 06:29:47;;;;;;;10.60;8.37;;;;;;;4.53;100.00;98483.56;5103953;28;20242;-68
2022/01/02 06:32:13;;;;;;;8.87;7.47;;;;;;;4.58;100.00;98487.69;5102925;28;20235;-68
2022/01/02 06:34:40;;;;;;;12.00;8.10;;;;;;;4.51;100.00;98475.75;5106534;28;20210;-68
2022/01/02 06:37:08;;;;;;;11.03;7.87;;;;;;;4.49;100.00;98481.97;5106638;28;20210;-68
2022/01/02 06:39:34;;;;;;;11.57;7.97;;;;;;;4.49;100.00;98482.81;5104437;28;20215;-68
2022/01/02 06:42:01;;;;;;;10.10;8.47;;;;;;;4.57;100.00;98491.22;5102672;28;20215;-69
2022/01/02 06:44:27;;;;;;;10.50;7.87;;;;;;;4.58;100.00;98486.84;5105917;28;20227;-68
2022/01/02 06:46:53;;;;;;;10.97;8.50;;;;;;;4.64;100.00;98492.66;5104680;28;20691;-68
2022/01/02 06:49:20;;;;;;;10.77;8.10;;;;;;;4.69;100.00;98492.47;5104912;28;20229;-68
2022/01/02 06:51:46;;;;;;;10.33;8.73;;;;;;;4.72;100.00;98490.63;5102791;28;20251;-68
2022/01/02 06:54:14;;;;;;;10.53;8.20;;;;;;;4.67;100.00;98492.56;5105109;28;20219;-68
2022/01/02 06:56:41;;;;;;;9.53;7.47;;;;;;;4.65;100.00;98477.84;5106636;28;20210;-68
2022/01/02 06:59:07;;;;;;;9.23;7.00;;;;;;;4.60;100.00;98475.41;5105097;28;20222;-67
2022/01/02 07:01:34;;;;;;;9.37;7.20;;;;;;;4.57;100.00;98475.50;5102648;28;20228;-67
2022/01/02 07:04:00;;;;;;;8.27;6.97;;;;;;;4.56;100.00;98479.03;5104730;28;20217;-67
2022/01/02 07:06:27;;;;;;;8.07;6.80;;;;;;;4.54;100.00;98465.19;5106050;28;20219;-68
2022/01/02 07:08:53;;;;;;;10.20;6.83;;;;;;;4.51;100.00;98472.28;5098774;28;20212;-67
2022/01/02 07:11:21;;;;;;;7.93;6.53;;;;;;;4.51;100.00;98464.41;5094780;28;20608;-68
2022/01/02 07:13:47;;;;;;;9.07;7.00;;;;;;;4.47;100.00;98468.94;5097567;28;20234;-68
2022/01/02 07:16:14;;;;;;;9.63;7.30;;;;;;;4.51;100.00;98475.75;5095628;28;20207;-68
2022/01/02 07:18:40;;;;;;;9.93;7.57;;;;;;;4.56;100.00;98472.94;5095611;28;20218;-69
2022/01/02 07:21:07;;;;;;;9.83;7.23;;;;;;;4.61;100.00;98476.25;5095416;28;20207;-68
2022/01/02 07:23:33;;;;;;;10.10;6.87;;;;;;;4.66;100.00;98469.91;5103188;28;20215;-68
2022/01/02 07:26:00;;;;;;;7.97;6.77;;;;;;;4.70;100.00;98455.78;5106209;28;20207;-68
2022/01/02 07:28:29;;;;;;;10.27;6.83;;;;;;;4.76;100.00;98463.38;5106142;28;20215;-68
2022/01/02 07:30:55;;;;;;;8.47;6.70;;;;;;;4.77;100.00;98462.47;5095371;28;20240;-68
2022/01/02 07:33:22;;;;;;;8.03;6.50;;;;;;;4.68;100.00;98462.84;5100976;28;20707;-68
2022/01/02 07:35:48;;;;;;;8.10;6.40;;;;;;;4.61;100.00;98455.28;5099600;28;20669;-68
2022/01/02 07:38:15;;;;;;;9.57;6.80;;;;;;;4.50;100.00;98458.34;5097803;28;20222;-68
2022/01/02 07:40:41;;;;;;;8.47;6.57;;;;;;;4.46;100.00;98462.00;5099195;28;20223;-68
2022/01/02 07:43:08;;;;;;;9.00;6.50;;;;;;;4.39;100.00;98476.22;5101996;28;20216;-68
2022/01/02 07:45:35;;;;;;;7.20;6.07;;;;;;;4.35;100.00;98469.41;5098932;28;20207;-68
2022/01/02 07:48:02;;;;;;;8.60;6.63;;;;;;;4.26;100.00;98475.00;5099294;28;20234;-68
2022/01/02 07:50:28;;;;;;;7.90;6.60;;;;;;;4.22;100.00;98467.34;5099068;28;20219;-68
2022/01/02 07:52:55;;;;;;;7.80;6.00;;;;;;;4.17;100.00;98464.88;5101642;28;20248;-67
2022/01/02 07:55:21;;;;;;;7.63;6.60;;;;;;;4.20;100.00;98470.03;5098765;28;20689;-68
2022/01/02 07:57:48;;;;;;;9.00;6.77;;;;;;;4.25;100.00;98473.31;5098944;28;20211;-68
2022/01/02 08:00:16;;;;;;;8.83;6.40;;;;;;;4.31;100.00;98478.31;5098779;28;20212;-68
2022/01/02 08:02:44;;;;;;;8.47;6.63;;;;;;;4.38;100.00;98471.91;5101264;28;20261;-68
2022/01/02 08:05:11;;;;;;;8.93;6.90;;;;;;;4.38;100.00;98469.31;5098642;28;20216;-68
2022/01/02 08:07:38;;;;;;;9.00;6.47;;;;;;;4.46;100.00;98462.00;5100073;28;20228;-68
2022/01/02 08:10:05;;;;;;;8.47;6.37;;;;;;;4.50;100.00;98467.94;5100772;28;20212;-68
2022/01/02 08:12:32;;;;;;;9.17;7.03;;;;;;;4.58;100.00;98465.91;5101136;28;20244;-68
2022/01/02 08:14:58;;;;;;;8.00;7.03;;;;;;;4.60;100.00;98470.16;5099087;28;20219;-68
2022/01/02 08:17:27;;;;;;;9.27;6.70;;;;;;;4.67;100.00;98469.00;5098791;28;20222;-68
2022/01/02 08:19:55;;;;;;;9.03;6.47;;;;;;;4.73;100.00;98466.13;5098565;28;20243;-68
2022/01/02 08:22:22;;;;;;;9.73;6.83;;;;;;;4.78;100.00;98464.19;5100880;28;20221;-68
2022/01/02 08:24:49;;;;;;;7.97;6.37;;;;;;;4.89;100.00;98461.94;5097433;28;20221;-68
2022/01/02 08:27:15;;;;;;;9.17;7.10;;;;;;;4.99;100.00;98468.53;5095878;28;20838;-67
2022/01/02 08:29:42;;;;;;;8.47;6.47;;;;;;;5.18;100.00;98464.22;5095580;28;20245;-68
2022/01/02 08:32:08;;;;;;;8.57;6.63;;;;;;;5.32;100.00;98461.84;5098946;28;20236;-68
2022/01/02 08:34:35;;;;;;;9.30;6.83;;;;;;;5.50;100.00;98481.19;5096643;28;20208;-68
2022/01/02 08:37:03;;;;;;;8.93;6.37;;;;;;;5.66;100.00;98475.19;5102320;28;20219;-68
2022/01/02 08:39:29;;;;;;;8.00;6.43;;;;;;;5.80;100.00;98461.50;5101201;28;20236;-69
2022/01/02 08:41:56;;;;;;;9.43;7.00;;;;;;;5.91;100.00;98457.47;5097243;28;20247;-69
2022/01/02 08:44:23;;;;;;;8.90;6.63;;;;;;;5.98;100.00;98456.25;5096584;28;20222;-68
2022/01/02 08:46:50;;;;;;;8.30;6.40;;;;;;;6.08;100.00;98449.69;5097778;28;20216;-68
2022/01/02 08:49:17;;;;;;;7.90;6.27;;;;;;;6.17;100.00;98453.66;5099526;28;20217;-68
2022/01/02 08:51:43;;;;;;;7.70;6.27;;;;;;;6.29;100.00;98453.91;5099247;28;20212;-68
2022/01/02 08:54:11;;;;;;;7.63;6.50;;;;;;;6.38;100.00;98453.50;5097918;28;20213;-68
2022/01/02 08:56:38;;;;;;;7.73;6.40;;;;;;;6.49;100.00;98456.47;5096012;28;20216;-68
2022/01/02 08:59:04;;;;;;;7.47;5.97;;;;;;;6.56;100.00;98451.75;5106150;28;20213;-68
2022/01/02 09:01:31;;;;;;;7.93;6.07;;;;;;;6.58;100.00;98461.25;5098649;28;20213;-68
2022/01/02 09:03:57;;;;;;;7.33;6.00;;;;;;;6.59;100.00;98464.75;5096585;28;20217;-69
2022/01/02 09:06:24;;;;;;;6.87;5.40;;;;;;;6.59;100.00;98465.59;5096015;28;20215;-68
2022/01/02 09:08:50;;;;;;;6.57;5.73;;;;;;;6.64;100.00;98471.47;5102128;28;20211;-68
2022/01/02 09:11:18;;;;;;;6.73;5.50;;;;;;;6.70;100.00;98465.91;5104156;28;20679;-68
2022/01/02 09:13:44;;;;;;;6.30;5.70;;;;;;;6.75;100.00;98473.56;5107450;28;20243;-68
2022/01/02 09:16:11;;;;;;;7.57;5.93;;;;;;;6.76;100.00;98470.00;5108253;28;20208;-68
2022/01/02 09:18:37;;;;;;;6.87;6.10;;;;;;;6.78;100.00;98463.75;5107881;28;20697;-68
2022/01/02 09:21:04;;;;;;;6.70;5.93;;;;;;;6.79;100.00;98469.88;5104466;28;20218;-68
2022/01/02 09:23:30;;;;;;;7.43;5.77;;;;;;;6.79;100.00;98460.22;5103880;28;20231;-68
2022/01/02 09:25:57;;;;;;;8.43;6.07;;;;;;;6.81;100.00;98455.75;5104891;28;20687;-68
2022/01/02 09:28:25;;;;;;;7.07;5.73;;;;;;;6.83;100.00;98446.00;5106978;28;20221;-68
2022/01/02 09:30:51;;;;;;;7.37;5.93;;;;;;;6.91;100.00;98453.53;5102610;28;20279;-68
2022/01/02 09:33:18;;;;;;;6.80;6.07;;;;;;;7.03;100.00;98459.00;5104329;28;20286;-68
2022/01/02 09:35:45;;;;;;;8.47;6.27;;;;;;;7.20;100.00;98451.13;5104248;28;20217;-69
2022/01/02 09:38:12;;;;;;;6.17;5.20;;;;;;;7.28;100.00;98463.88;5097031;28;20258;-69
2022/01/02 09:40:40;;;;;;;6.57;5.57;;;;;;;7.29;100.00;98466.44;5095373;28;20222;-69
2022/01/02 09:43:07;;;;;;;6.60;5.33;;;;;;;7.41;100.00;98477.16;5096166;28;20216;-69
2022/01/02 09:45:38;;;;;;;5.70;5.10;;;;;;;7.47;100.00;98478.66;5094404;28;20218;-70
2022/01/02 09:48:05;;;;;;;6.93;5.67;;;;;;;7.55;100.00;98476.47;5093510;28;20275;-68
2022/01/02 09:50:33;;;;;;;7.60;5.60;;;;;;;7.59;100.00;98486.75;5095725;28;20207;-68
2022/01/02 09:53:00;;;;;;;7.07;5.50;;;;;;;7.62;100.00;98480.47;5095112;28;20242;-70
2022/01/02 09:55:26;;;;;;;6.37;5.27;;;;;;;7.66;100.00;98476.78;5095339;28;20600;-69
2022/01/02 09:57:54;;;;;;;6.20;5.20;;;;;;;7.74;100.00;98464.06;5095142;28;20218;-67
2022/01/02 10:00:21;;;;;;;6.00;4.93;;;;;;;7.82;100.00;98461.84;5097365;28;20621;-69
2022/01/02 10:03:00;;;;;;;6.47;5.40;;;;;;;7.87;100.00;98465.97;5096249;28;20210;-68
2022/01/02 10:05:28;;;;;;;6.90;5.47;;;;;;;7.93;100.00;98459.50;5094852;28;20213;-67
2022/01/02 10:07:56;;;;;;;6.50;5.23;;;;;;;7.96;100.00;98448.84;5095212;28;20267;-67
2022/01/02 10:10:31;;;;;;;5.23;4.50;;;;;;;7.98;100.00;98442.56;5094239;28;20691;-68
2022/01/02 10:13:01;;;;;;;5.97;5.00;;;;;;;8.03;100.00;98450.19;5094188;28;20237;-67
2022/01/02 10:15:28;;;;;;;6.43;5.03;;;;;;;8.01;100.00;98454.69;5092662;28;20220;-67
2022/01/02 10:18:01;;;;;;;5.93;5.07;;;;;;;8.02;100.00;98453.78;5096488;28;20226;-70
2022/01/02 10:20:30;;;;;;;5.73;5.13;;;;;;;7.96;100.00;98441.78;5093954;28;20694;-67
2022/01/02 10:23:09;;;;;;;6.43;5.43;;;;;;;7.91;100.00;98432.44;5094317;28;20218;-69
2022/01/02 10:25:37;;;;;;;5.93;5.00;;;;;;;7.88;100.00;98440.47;5095044;28;20642;-69
2022/01/02 10:28:22;;;;;;;6.87;5.10;;;;;;;7.82;100.00;98454.84;5097586;28;20215;-68
2022/01/02 10:30:50;;;;;;;6.27;5.10;;;;;;;7.81;100.00;98445.25;5094212;28;20291;-68
2022/01/02 10:33:18;;;;;;;7.20;5.47;;;;;;;7.82;100.00;98435.56;5093963;28;20242;-70
2022/01/02 10:35:45;;;;;;;6.27;5.10;;;;;;;7.84;100.00;98425.81;5095561;28;20221;-70
2022/01/02 10:38:16;;;;;;;6.37;5.10;;;;;;;7.88;100.00;98425.56;5094039;28;20211;-69
2022/01/02 10:40:43;;;;;;;7.63;6.10;;;;;;;7.90;100.00;98412.31;5093342;28;20214;-70
2022/01/02 10:43:12;;;;;;;6.63;5.37;;;;;;;7.93;100.00;98406.88;5093297;28;20210;-69
2022/01/02 10:45:43;;;;;;;6.30;4.80;;;;;;;7.93;100.00;98401.63;5098963;28;20222;-69
2022/01/02 10:48:11;;;;;;;6.10;5.40;;;;;;;8.02;100.00;98385.34;5096026;28;20207;-69
2022/01/02 10:50:39;;;;;;;6.37;5.70;;;;;;;8.07;100.00;98381.50;5101025;28;20222;-68
2022/01/02 10:53:14;;;;;;;7.87;5.80;;;;;;;8.07;100.00;98372.75;5094135;28;20244;-68
2022/01/02 10:55:44;;;;;;;6.97;5.83;;;;;;;8.04;100.00;98386.09;5096351;28;20225;-68
2022/01/02 10:58:11;;;;;;;7.63;6.53;;;;;;;8.02;100.00;98380.06;5093806;28;20211;-69
2022/01/02 11:00:39;;;;;;;7.93;6.27;;;;;;;8.09;100.00;98376.16;5093568;28;20221;-69
2022/01/02 11:03:06;;;;;;;6.67;5.87;;;;;;;8.17;100.00;98380.06;5095653;28;20604;-68
2022/01/02 11:05:35;;;;;;;8.43;5.83;;;;;;;8.26;100.00;98381.38;5105041;28;20222;-68
2022/01/02 11:08:05;;;;;;;6.63;5.50;;;;;;;8.39;100.00;98385.84;5108312;28;20375;-69
2022/01/02 11:10:35;;;;;;;7.50;5.93;;;;;;;8.48;100.00;98392.38;5097893;28;20295;-69
2022/01/02 11:13:03;;;;;;;6.43;5.23;;;;;;;8.60;100.00;98399.59;5099335;28;20271;-68
2022/01/02 11:15:30;;;;;;;6.00;5.30;;;;;;;8.67;100.00;98408.84;5096887;28;20215;-69
2022/01/02 11:17:57;;;;;;;6.30;4.80;;;;;;;8.69;100.00;98397.28;5097242;28;20241;-69
2022/01/02 11:20:26;;;;;;;5.83;4.97;;;;;;;8.73;100.00;98395.31;5097723;28;20214;-69
2022/01/02 11:23:00;;;;;;;5.00;4.50;;;;;;;8.80;100.00;98399.28;5099479;28;20225;-69
2022/01/02 11:25:34;;;;;;;4.77;4.20;;;;;;;8.89;100.00;98401.41;5097834;28;20276;-69
2022/01/02 11:28:03;;;;;;;4.80;4.30;;;;;;;9.00;100.00;98401.63;5097804;28;20226;-69
2022/01/02 11:30:38;;;;;;;5.57;4.73;;;;;;;9.08;100.00;98402.03;5098520;28;20256;-69
2022/01/02 11:33:06;;;;;;;5.37;4.40;;;;;;;9.14;100.00;98384.06;5107849;28;20238;-69
2022/01/02 11:35:35;;;;;;;5.47;4.60;;;;;;;9.22;100.00;98388.84;5108922;28;20207;-68